createdAt,value
2023-04-12T00:00:55.403Z,88.92
2023-04-12T00:03:43.875Z,88.93
2023-04-12T00:06:25.368Z,88.74
2023-04-12T00:09:00.447Z,88.71
2023-04-12T00:11:35.208Z,88.96
2023-04-12T00:14:09.155Z,88.88
2023-04-12T00:16:47.653Z,88.64
2023-04-12T00:19:28.342Z,88.94
2023-04-12T00:22:05.289Z,88.81
2023-04-12T00:24:43.311Z,88.81
2023-04-12T00:27:21.572Z,88.98
2023-04-12T00:29:56.878Z,88.80
2023-04-12T00:32:34.556Z,88.98
2023-04-12T00:35:24.464Z,88.89
2023-04-12T00:38:00.458Z,88.58
2023-04-12T00:40:35.961Z,88.66
2023-04-12T00:43:16.114Z,88.94
2023-04-12T00:46:08.321Z,88.87
2023-04-12T00:48:47.962Z,88.80
2023-04-12T00:51:26.088Z,89.10
2023-04-12T00:54:01.265Z,88.91
2023-04-12T00:56:36.896Z,89.08
2023-04-12T00:59:12.989Z,88.86
2023-04-12T01:01:46.620Z,89.14
2023-04-12T01:04:22.893Z,89.11
2023-04-12T01:07:15.946Z,89.05
2023-04-12T01:10:09.362Z,89.39
2023-04-12T01:12:49.322Z,89.13
2023-04-12T01:15:33.381Z,89.30
2023-04-12T01:18:10.979Z,89.44
2023-04-12T01:20:54.144Z,89.49
2023-04-12T01:23:54.155Z,89.43
2023-04-12T01:26:45.058Z,89.43
2023-04-12T01:29:21.600Z,89.50
2023-04-12T01:32:01.124Z,89.63
2023-04-12T01:34:36.405Z,89.61
2023-04-12T01:37:10.223Z,89.83
2023-04-12T01:39:46.717Z,89.90
2023-04-12T01:42:23.150Z,89.76
2023-04-12T01:44:56.862Z,89.73
2023-04-12T01:47:31.149Z,90.04
2023-04-12T01:50:14.637Z,89.87
2023-04-12T01:52:54.384Z,89.89
2023-04-12T01:55:33.401Z,89.78
2023-04-12T01:58:10.718Z,90.03
2023-04-12T02:01:02.045Z,90.01
2023-04-12T02:03:37.001Z,89.80
2023-04-12T02:06:11.422Z,89.99
2023-04-12T02:08:45.455Z,90.10
2023-04-12T02:11:18.870Z,90.18
2023-04-12T02:13:55.685Z,90.23
2023-04-12T02:16:32.700Z,90.41
2023-04-12T02:19:13.680Z,90.35
2023-04-12T02:21:46.743Z,90.54
2023-04-12T02:24:28.220Z,90.68
2023-04-12T02:27:02.819Z,90.86
2023-04-12T02:29:49.231Z,90.88
2023-04-12T02:32:25.643Z,90.81
2023-04-12T02:34:59.357Z,91.04
2023-04-12T02:37:43.603Z,91.12
2023-04-12T02:40:29.265Z,90.89
2023-04-12T02:43:04.976Z,91.01
2023-04-12T02:45:44.272Z,91.09
2023-04-12T02:48:23.064Z,90.90
2023-04-12T02:51:06.407Z,91.03
2023-04-12T02:53:39.520Z,91.31
2023-04-12T02:56:36.285Z,91.58
2023-04-12T02:59:31.742Z,91.56
2023-04-12T03:02:30.798Z,91.34
2023-04-12T03:05:08.167Z,91.52
2023-04-12T03:07:54.055Z,91.62
2023-04-12T03:10:39.748Z,91.54
2023-04-12T03:13:12.688Z,91.34
2023-04-12T03:15:56.505Z,91.67
2023-04-12T03:18:34.549Z,91.31
2023-04-12T03:21:12.190Z,91.41
2023-04-12T03:23:58.499Z,91.61
2023-04-12T03:26:37.549Z,91.51
2023-04-12T03:29:39.508Z,91.43
2023-04-12T03:32:12.805Z,91.07
2023-04-12T03:35:01.039Z,91.09
2023-04-12T03:37:40.791Z,91.04
2023-04-12T03:40:18.077Z,91.01
2023-04-12T03:42:56.889Z,91.23
2023-04-12T03:45:31.348Z,91.10
2023-04-12T03:48:06.316Z,91.27
2023-04-12T03:50:54.740Z,91.13
2023-04-12T03:53:28.544Z,91.26
2023-04-12T03:56:17.573Z,91.38
2023-04-12T03:58:56.063Z,91.29
2023-04-12T04:01:32.348Z,91.18
2023-04-12T04:04:11.784Z,91.19
2023-04-12T04:06:42.362Z,91.49
2023-04-12T04:09:28.507Z,91.21
2023-04-12T04:12:01.357Z,91.54
2023-04-12T04:14:36.467Z,91.47
2023-04-12T04:17:08.793Z,91.71
2023-04-12T04:19:53.380Z,91.44
2023-04-12T04:22:28.977Z,91.74
2023-04-12T04:25:06.642Z,91.70
2023-04-12T04:27:38.296Z,91.39
2023-04-12T04:30:24.934Z,91.64
2023-04-12T04:32:58.980Z,91.99
2023-04-12T04:35:32.498Z,91.68
2023-04-12T04:38:32.318Z,91.37
2023-04-12T04:41:17.688Z,91.54
2023-04-12T04:43:57.940Z,91.40
2023-04-12T04:46:33.310Z,91.42
2023-04-12T04:49:07.956Z,91.35
2023-04-12T04:51:42.264Z,91.30
2023-04-12T04:54:16.222Z,91.36
2023-04-12T04:56:49.161Z,91.43
2023-04-12T04:59:23.543Z,91.26
2023-04-12T05:01:57.878Z,91.24
2023-04-12T05:04:32.400Z,91.28
2023-04-12T05:07:07.015Z,91.33
2023-04-12T05:09:44.438Z,91.11
2023-04-12T05:12:26.067Z,90.91
2023-04-12T05:15:11.030Z,90.83
2023-04-12T05:17:46.610Z,90.81
2023-04-12T05:20:20.412Z,91.11
2023-04-12T05:22:53.320Z,91.11
2023-04-12T05:25:28.572Z,91.18
2023-04-12T05:28:29.578Z,91.36
2023-04-12T05:31:01.169Z,91.53
2023-04-12T05:33:40.922Z,91.38
2023-04-12T05:36:14.480Z,91.49
2023-04-12T05:38:51.739Z,91.69
2023-04-12T05:41:30.768Z,91.64
2023-04-12T05:44:04.516Z,91.65
2023-04-12T05:46:35.659Z,91.66
2023-04-12T05:49:20.100Z,91.78
2023-04-12T05:51:57.484Z,91.98
2023-04-12T05:54:29.595Z,92.02
2023-04-12T05:57:04.953Z,92.20
2023-04-12T05:59:43.453Z,91.94
2023-04-12T06:02:16.087Z,92.36
2023-04-12T06:04:51.176Z,92.58
2023-04-12T06:07:29.749Z,92.41
2023-04-12T06:10:03.097Z,92.55
2023-04-12T06:12:37.792Z,92.66
2023-04-12T06:15:19.276Z,92.28
2023-04-12T06:18:02.365Z,92.37
2023-04-12T06:20:43.677Z,92.46
2023-04-12T06:23:18.720Z,92.50
2023-04-12T06:25:55.796Z,92.13
2023-04-12T06:28:32.268Z,92.19
2023-04-12T06:31:06.213Z,92.50
2023-04-12T06:33:44.896Z,92.37
2023-04-12T06:36:21.324Z,92.47
2023-04-12T06:38:55.670Z,92.27
2023-04-12T06:41:31.297Z,92.43
2023-04-12T06:44:06.386Z,92.31
2023-04-12T06:46:39.326Z,92.32
2023-04-12T06:49:16.747Z,92.47
2023-04-12T06:51:49.558Z,92.26
2023-04-12T06:54:28.313Z,92.21
2023-04-12T06:57:02.634Z,92.42
2023-04-12T06:59:37.941Z,92.11
2023-04-12T07:02:15.168Z,92.25
2023-04-12T07:04:54.376Z,92.40
2023-04-12T07:07:31.526Z,92.18
2023-04-12T07:10:06.003Z,92.43
2023-04-12T07:12:41.294Z,92.19
2023-04-12T07:15:20.787Z,92.26
2023-04-12T07:17:53.334Z,92.02
2023-04-12T07:20:37.658Z,91.97
2023-04-12T07:23:14.056Z,92.15
2023-04-12T07:25:49.837Z,92.23
2023-04-12T07:28:27.140Z,92.19
2023-04-12T07:31:00.081Z,92.18
2023-04-12T07:33:35.512Z,92.04
2023-04-12T07:36:16.414Z,91.84
2023-04-12T07:38:51.032Z,91.79
2023-04-12T07:41:25.734Z,91.67
2023-04-12T07:44:01.512Z,91.32
2023-04-12T07:46:36.394Z,91.36
2023-04-12T07:49:10.272Z,91.58
2023-04-12T07:51:45.239Z,91.95
2023-04-12T07:54:23.670Z,92.11
2023-04-12T07:57:19.965Z,91.86
2023-04-12T07:59:56.754Z,92.00
2023-04-12T08:02:33.131Z,91.91
2023-04-12T08:05:06.737Z,91.64
2023-04-12T08:07:41.533Z,91.86
2023-04-12T08:10:13.739Z,91.88
2023-04-12T08:12:46.628Z,92.17
2023-04-12T08:15:23.063Z,91.84
2023-04-12T08:17:55.664Z,91.68
2023-04-12T08:20:28.794Z,91.57
2023-04-12T08:23:11.105Z,91.65
2023-04-12T08:25:43.402Z,91.36
2023-04-12T08:28:27.968Z,91.37
2023-04-12T08:31:01.807Z,91.28
2023-04-12T08:33:36.485Z,91.17
2023-04-12T08:36:24.043Z,91.19
2023-04-12T08:39:02.237Z,90.96
2023-04-12T08:41:38.535Z,90.93
2023-04-12T08:44:14.379Z,90.82
2023-04-12T08:46:50.677Z,90.98
2023-04-12T08:49:31.913Z,91.14
2023-04-12T08:52:06.496Z,91.12
2023-04-12T08:54:47.052Z,91.21
2023-04-12T08:57:20.508Z,91.13
2023-04-12T08:59:56.466Z,91.24
2023-04-12T09:02:28.986Z,91.19
2023-04-12T09:05:00.844Z,90.88
2023-04-12T09:07:39.594Z,90.59
2023-04-12T09:10:38.560Z,90.61
2023-04-12T09:13:15.145Z,90.91
2023-04-12T09:16:02.508Z,91.07
2023-04-12T09:19:00.249Z,90.98
2023-04-12T09:21:34.870Z,90.99
2023-04-12T09:24:30.502Z,91.24
2023-04-12T09:27:13.810Z,91.24
2023-04-12T09:29:46.173Z,90.91
2023-04-12T09:32:31.652Z,90.93
2023-04-12T09:35:07.047Z,90.94
2023-04-12T09:37:45.874Z,90.94
2023-04-12T09:40:34.493Z,90.62
2023-04-12T09:43:13.304Z,90.83
2023-04-12T09:45:49.258Z,90.94
2023-04-12T09:48:26.719Z,90.69
2023-04-12T09:51:03.462Z,90.47
2023-04-12T09:53:46.175Z,89.99
2023-04-12T09:56:39.428Z,89.81
2023-04-12T09:59:17.617Z,88.69
2023-04-12T10:01:54.615Z,88.55
2023-04-12T10:04:32.265Z,88.31
2023-04-12T10:07:07.627Z,87.48
2023-04-12T10:09:43.957Z,87.29
2023-04-12T10:12:20.094Z,87.74
2023-04-12T10:14:56.992Z,87.47
2023-04-12T10:17:33.012Z,86.88
2023-04-12T10:20:11.014Z,86.55
2023-04-12T10:22:46.771Z,85.97
2023-04-12T10:25:22.612Z,85.63
2023-04-12T10:27:54.370Z,85.10
2023-04-12T10:30:32.566Z,84.69
2023-04-12T10:33:21.295Z,84.87
2023-04-12T10:36:08.059Z,84.49
2023-04-12T10:39:07.922Z,84.56
2023-04-12T10:42:07.034Z,84.64
2023-04-12T10:44:43.837Z,84.41
2023-04-12T10:47:16.793Z,84.17
2023-04-12T10:50:24.886Z,83.66
2023-04-12T10:53:28.792Z,83.56
2023-04-12T10:56:02.037Z,83.68
2023-04-12T10:58:58.664Z,83.82
2023-04-12T11:01:44.741Z,83.41
2023-04-12T11:04:17.664Z,83.33
2023-04-12T11:07:06.670Z,83.68
2023-04-12T11:10:15.629Z,84.19
2023-04-12T11:12:51.814Z,84.18
2023-04-12T11:15:33.848Z,84.05
2023-04-12T11:18:11.065Z,83.34
2023-04-12T11:20:47.112Z,83.68
2023-04-12T11:23:24.259Z,83.86
2023-04-12T11:25:58.124Z,83.57
2023-04-12T11:28:35.544Z,83.24
2023-04-12T11:31:10.812Z,82.42
2023-04-12T11:33:46.454Z,82.43
2023-04-12T11:36:39.406Z,82.07
2023-04-12T11:39:13.649Z,81.77
2023-04-12T11:41:49.955Z,81.66
2023-04-12T11:44:22.541Z,81.35
2023-04-12T11:46:54.469Z,80.77
2023-04-12T11:49:29.009Z,80.49
2023-04-12T11:52:10.051Z,80.20
2023-04-12T11:54:43.490Z,79.74
2023-04-12T11:57:17.369Z,79.67
2023-04-12T12:00:07.140Z,79.80
2023-04-12T12:03:04.370Z,79.81
2023-04-12T12:05:45.094Z,79.61
2023-04-12T12:08:16.929Z,79.31
2023-04-12T12:11:07.148Z,78.62
2023-04-12T12:13:52.767Z,78.52
2023-04-12T12:16:30.312Z,77.92
2023-04-12T12:19:07.626Z,77.91
2023-04-12T12:21:43.559Z,78.22
2023-04-12T12:24:19.553Z,77.96
2023-04-12T12:26:55.202Z,77.67
2023-04-12T12:29:29.310Z,77.88
2023-04-12T12:32:06.912Z,77.72
2023-04-12T12:34:41.016Z,77.27
2023-04-12T12:37:17.246Z,77.34
2023-04-12T12:40:13.722Z,77.44
2023-04-12T12:43:00.924Z,77.05
2023-04-12T12:45:40.733Z,76.40
2023-04-12T12:48:17.954Z,76.67
2023-04-12T12:50:54.924Z,76.49
2023-04-12T12:53:29.515Z,76.17
2023-04-12T12:56:08.043Z,75.79
2023-04-12T12:58:42.896Z,75.41
2023-04-12T13:01:17.546Z,74.95
2023-04-12T13:03:54.033Z,75.05
2023-04-12T13:06:33.981Z,74.85
2023-04-12T13:09:04.173Z,74.53
2023-04-12T13:11:41.885Z,74.73
2023-04-12T13:14:16.938Z,74.49
2023-04-12T13:16:52.149Z,74.49
2023-04-12T13:19:25.350Z,74.21
2023-04-12T13:21:59.764Z,74.16
2023-04-12T13:24:34.307Z,74.38
2023-04-12T13:27:15.125Z,74.36
2023-04-12T13:29:56.022Z,74.44
2023-04-12T13:32:28.056Z,74.52
2023-04-12T13:35:01.991Z,74.38
2023-04-12T13:37:35.659Z,74.53
2023-04-12T13:40:12.047Z,74.29
2023-04-12T13:42:46.816Z,74.07
2023-04-12T13:45:20.572Z,74.09
2023-04-12T13:47:52.826Z,74.23
2023-04-12T13:50:31.680Z,74.48
2023-04-12T13:53:05.309Z,74.63
2023-04-12T13:55:39.552Z,74.50
2023-04-12T13:58:15.207Z,74.73
2023-04-12T14:00:48.380Z,74.32
2023-04-12T14:03:27.215Z,74.33
2023-04-12T14:06:02.159Z,74.12
2023-04-12T14:08:38.142Z,73.86
2023-04-12T14:11:16.064Z,74.20
2023-04-12T14:13:49.770Z,74.24
2023-04-12T14:16:21.660Z,73.98
2023-04-12T14:18:58.481Z,73.51
2023-04-12T14:21:35.733Z,73.44
2023-04-12T14:24:14.660Z,73.69
2023-04-12T14:26:50.765Z,73.11
2023-04-12T14:29:27.617Z,72.48
2023-04-12T14:32:20.336Z,72.28
2023-04-12T14:34:50.825Z,72.79
2023-04-12T14:37:23.625Z,72.61
2023-04-12T14:39:58.860Z,72.44
2023-04-12T14:42:32.797Z,72.71
2023-04-12T14:45:07.763Z,72.27
2023-04-12T14:47:43.595Z,71.87
2023-04-12T14:50:19.893Z,71.70
2023-04-12T14:52:56.550Z,71.85
2023-04-12T14:55:30.287Z,71.63
2023-04-12T14:58:19.406Z,71.92
2023-04-12T15:00:53.526Z,72.01
2023-04-12T15:03:32.838Z,71.60
2023-04-12T15:06:06.059Z,71.17
2023-04-12T15:08:41.279Z,71.19
2023-04-12T15:11:19.210Z,71.13
2023-04-12T15:13:56.669Z,71.05
2023-04-12T15:16:30.287Z,71.18
2023-04-12T15:19:08.699Z,71.13
2023-04-12T15:21:51.212Z,70.85
2023-04-12T15:24:25.153Z,70.53
2023-04-12T15:26:58.673Z,70.36
2023-04-12T15:29:32.798Z,69.65
2023-04-12T15:32:06.008Z,69.74
2023-04-12T15:34:38.107Z,69.95
2023-04-12T15:37:11.342Z,69.93
2023-04-12T15:39:43.755Z,69.74
2023-04-12T15:42:17.293Z,69.67
2023-04-12T15:44:50.717Z,69.54
2023-04-12T15:47:23.085Z,69.43
2023-04-12T15:50:02.799Z,69.65
2023-04-12T15:52:36.499Z,69.74
2023-04-12T15:55:12.903Z,69.64
2023-04-12T15:57:45.519Z,69.98
2023-04-12T16:00:24.841Z,69.42
2023-04-12T16:02:56.967Z,69.84
2023-04-12T16:05:32.828Z,69.92
2023-04-12T16:08:07.106Z,69.78
2023-04-12T16:10:41.525Z,69.49
2023-04-12T16:13:14.728Z,69.51
2023-04-12T16:15:49.602Z,69.69
2023-04-12T16:18:22.071Z,69.77
2023-04-12T16:20:55.067Z,69.33
2023-04-12T16:23:29.386Z,69.60
2023-04-12T16:26:11.621Z,69.62
2023-04-12T16:28:42.796Z,69.58
2023-04-12T16:31:20.161Z,69.58
2023-04-12T16:33:56.061Z,69.82
2023-04-12T16:36:30.977Z,69.87
2023-04-12T16:39:06.211Z,70.02
2023-04-12T16:41:40.439Z,69.83
2023-04-12T16:44:18.263Z,69.93
2023-04-12T16:46:54.606Z,70.23
2023-04-12T16:49:29.067Z,70.44
2023-04-12T16:52:03.105Z,70.56
2023-04-12T16:54:35.582Z,70.76
2023-04-12T16:57:09.354Z,70.72
2023-04-12T16:59:42.721Z,70.62
2023-04-12T17:02:14.932Z,70.64
2023-04-12T17:04:48.268Z,70.82
2023-04-12T17:07:23.711Z,70.92
2023-04-12T17:09:55.982Z,70.86
2023-04-12T17:12:31.947Z,70.91
2023-04-12T17:15:05.823Z,71.00
2023-04-12T17:17:42.314Z,71.09
2023-04-12T17:20:15.946Z,71.18
2023-04-12T17:23:06.575Z,71.36
2023-04-12T17:25:41.807Z,71.52
2023-04-12T17:28:13.792Z,71.59
2023-04-12T17:30:48.401Z,71.59
2023-04-12T17:33:21.134Z,71.67
2023-04-12T17:35:54.142Z,71.78
2023-04-12T17:38:26.859Z,71.88
2023-04-12T17:40:59.396Z,72.08
2023-04-12T17:43:31.719Z,71.95
2023-04-12T17:46:04.116Z,72.13
2023-04-12T17:48:37.648Z,72.07
2023-04-12T17:51:11.182Z,72.24
2023-04-12T17:53:43.340Z,72.32
2023-04-12T17:56:14.538Z,72.34
2023-04-12T17:58:49.782Z,72.50
2023-04-12T18:01:23.581Z,72.43
2023-04-12T18:03:57.087Z,72.58
2023-04-12T18:06:31.781Z,72.54
2023-04-12T18:09:06.244Z,72.82
2023-04-12T18:11:41.346Z,72.91
2023-04-12T18:14:15.442Z,72.97
2023-04-12T18:16:46.998Z,73.12
2023-04-12T18:19:21.691Z,73.14
2023-04-12T18:21:55.690Z,73.20
2023-04-12T18:24:29.663Z,73.37
2023-04-12T18:27:04.550Z,73.50
2023-04-12T18:29:43.276Z,73.77
2023-04-12T18:32:15.848Z,73.82
2023-04-12T18:34:51.740Z,74.01
2023-04-12T18:37:21.686Z,73.96
2023-04-12T18:39:55.597Z,74.14
2023-04-12T18:42:28.669Z,74.14
2023-04-12T18:45:02.418Z,74.18
2023-04-12T18:47:34.638Z,74.38
2023-04-12T18:50:14.797Z,74.60
2023-04-12T18:52:46.946Z,74.73
2023-04-12T18:55:21.715Z,74.75
2023-04-12T18:57:55.894Z,74.94
2023-04-12T19:00:28.234Z,75.14
2023-04-12T19:03:01.809Z,75.36
2023-04-12T19:05:35.379Z,75.41
2023-04-12T19:08:08.396Z,75.53
2023-04-12T19:10:42.141Z,75.62
2023-04-12T19:13:16.537Z,75.85
2023-04-12T19:15:48.782Z,75.86
2023-04-12T19:18:20.878Z,76.24
2023-04-12T19:20:54.140Z,76.27
2023-04-12T19:23:29.416Z,76.41
2023-04-12T19:26:02.348Z,76.46
2023-04-12T19:28:34.412Z,76.50
2023-04-12T19:31:10.365Z,76.56
2023-04-12T19:33:43.281Z,76.95
2023-04-12T19:36:15.394Z,77.02
2023-04-12T19:38:49.636Z,76.97
2023-04-12T19:41:21.157Z,77.02
2023-04-12T19:43:53.126Z,77.18
2023-04-12T19:46:26.422Z,77.29
2023-04-12T19:48:59.545Z,77.37
2023-04-12T19:51:33.268Z,77.51
2023-04-12T19:54:09.726Z,77.37
2023-04-12T19:56:48.164Z,77.46
2023-04-12T19:59:21.676Z,77.66
2023-04-12T20:01:57.788Z,78.12
2023-04-12T20:04:36.371Z,78.13
2023-04-12T20:07:09.604Z,78.37
2023-04-12T20:09:42.575Z,78.24
2023-04-12T20:12:17.319Z,78.30
2023-04-12T20:14:50.166Z,78.30
2023-04-12T20:17:26.325Z,78.46
2023-04-12T20:19:58.773Z,78.63
2023-04-12T20:22:32.623Z,78.46
2023-04-12T20:25:05.005Z,78.71
2023-04-12T20:27:39.260Z,78.59
2023-04-12T20:30:28.086Z,78.61
2023-04-12T20:33:01.200Z,78.70
2023-04-12T20:35:35.966Z,78.83
2023-04-12T20:38:08.541Z,79.06
2023-04-12T20:40:41.233Z,79.02
2023-04-12T20:43:13.210Z,78.89
2023-04-12T20:45:47.268Z,79.16
2023-04-12T20:48:22.209Z,79.25
2023-04-12T20:50:59.183Z,79.44
2023-04-12T20:53:34.819Z,79.36
2023-04-12T20:56:15.374Z,79.39
2023-04-12T20:58:49.238Z,79.64
2023-04-12T21:01:24.731Z,79.61
2023-04-12T21:03:59.358Z,79.62
2023-04-12T21:06:36.160Z,79.68
2023-04-12T21:09:19.092Z,79.68
2023-04-12T21:11:54.180Z,79.96
2023-04-12T21:14:39.473Z,79.93
2023-04-12T21:17:20.273Z,79.94
2023-04-12T21:19:51.474Z,80.13
2023-04-12T21:22:28.208Z,80.25
2023-04-12T21:25:03.780Z,80.28
2023-04-12T21:27:38.158Z,80.27
2023-04-12T21:30:29.685Z,80.40
2023-04-12T21:33:05.487Z,80.50
2023-04-12T21:35:42.059Z,80.59
2023-04-12T21:38:16.959Z,80.58
2023-04-12T21:40:59.286Z,80.62
2023-04-12T21:43:31.707Z,80.87
2023-04-12T21:46:09.172Z,80.93
2023-04-12T21:48:43.989Z,81.04
2023-04-12T21:51:20.725Z,81.09
2023-04-12T21:53:56.268Z,81.45
2023-04-12T21:56:32.642Z,81.32
2023-04-12T21:59:09.199Z,81.42
2023-04-12T22:01:42.597Z,81.76
2023-04-12T22:04:19.121Z,81.62
2023-04-12T22:07:03.307Z,81.73
2023-04-12T22:09:38.359Z,81.95
2023-04-12T22:12:12.154Z,82.06
2023-04-12T22:14:58.350Z,82.24
2023-04-12T22:17:32.598Z,82.00
2023-04-12T22:20:15.096Z,82.24
2023-04-12T22:22:54.276Z,82.19
2023-04-12T22:25:30.289Z,82.41
2023-04-12T22:28:29.199Z,82.27
2023-04-12T22:31:04.567Z,82.46
2023-04-12T22:33:41.296Z,82.25
2023-04-12T22:36:17.068Z,82.29
2023-04-12T22:38:54.257Z,82.32
2023-04-12T22:41:31.187Z,82.51
2023-04-12T22:44:07.516Z,82.46
2023-04-12T22:46:48.471Z,82.49
2023-04-12T22:49:27.190Z,82.58
2023-04-12T22:52:02.898Z,82.63
2023-04-12T22:54:41.083Z,82.60
2023-04-12T22:57:13.778Z,82.72
2023-04-12T22:59:46.603Z,82.75
2023-04-12T23:02:23.109Z,83.04
2023-04-12T23:05:18.335Z,82.77
2023-04-12T23:08:06.684Z,82.77
2023-04-12T23:10:37.152Z,82.76
2023-04-12T23:13:09.758Z,82.89
2023-04-12T23:15:44.333Z,82.95
2023-04-12T23:18:20.653Z,82.91
2023-04-12T23:20:55.360Z,83.02
2023-04-12T23:23:27.105Z,83.11
2023-04-12T23:26:01.181Z,83.28
2023-04-12T23:28:35.194Z,83.41
2023-04-12T23:31:11.992Z,83.43
2023-04-12T23:33:44.135Z,83.48
2023-04-12T23:36:22.361Z,83.85
2023-04-12T23:38:57.429Z,83.73
2023-04-12T23:41:33.892Z,83.77
2023-04-12T23:44:07.117Z,84.04
2023-04-12T23:46:49.447Z,83.68
2023-04-12T23:49:25.544Z,83.83
2023-04-12T23:52:00.619Z,84.08
2023-04-12T23:54:34.729Z,83.90
2023-04-12T23:57:06.013Z,83.89
2023-04-12T23:59:39.582Z,83.99
